KBFD

Bradford Regional Airport

Bradford, Pennsylvania, USA
METAR KBFD 152053Z AUTO 33009KT 10SM SCT050 OVC110 29/18 A3005 RMK AO2 SLP155 T02890178 56008
Observed Flight Rules
Jul-15 @ 20:53 UTC (17 minutes ago) Visual Flight Rules
Wind Visibility Clouds
330° at 9 knots 10 miles
  • Scattered at 5,000' AGL
  • Overcast at 11,000' AGL
Temperatures Readings
Current 29°C / 84°F
Dewpoint 18°C / 64°F
Humidity 51%
Altimeter 30.05" Hg
Pressure 1015.5 hPa
Elevation 647
METAR KBFD 152053Z AUTO 33009KT 10SM SCT050 OVC110 29/18 A3005 RMK AO2 SLP155 T02890178 56008
Observed Flight Rules
Jul-15 @ 20:53 UTC
(17 minutes ago)
VFR
Wind Visibility
330° at 9 knots 10 miles
Clouds
  • Scattered at 5,000' AGL
  • Overcast at 11,000' AGL
Temperature Dewpoint
29°C / 84°F 18°C / 64°F
Humidity Altimeter Pressure
51% 30.05" Hg 1015.5 hPa